createdAt,value
2022-10-10T00:00:35.742Z,99925.69
2022-10-10T00:03:25.455Z,99926.09
2022-10-10T00:06:14.605Z,99928.78
2022-10-10T00:09:02.950Z,99933.88
2022-10-10T00:11:50.891Z,99938.78
2022-10-10T00:14:38.801Z,99932.00
2022-10-10T00:17:26.738Z,99938.63
2022-10-10T00:20:18.560Z,99944.81
2022-10-10T00:23:06.486Z,99943.84
2022-10-10T00:25:54.508Z,99935.47
2022-10-10T00:28:42.564Z,99935.72
2022-10-10T00:31:30.821Z,99932.81
2022-10-10T00:34:18.901Z,99930.75
2022-10-10T00:37:08.213Z,99938.56
2022-10-10T00:39:56.210Z,99931.31
2022-10-10T00:42:44.162Z,99935.25
2022-10-10T00:45:38.671Z,99933.59
2022-10-10T00:48:31.176Z,99882.53
2022-10-10T00:51:20.452Z,99935.13
2022-10-10T00:54:13.112Z,99911.56
2022-10-10T00:57:05.439Z,99928.63
2022-10-10T00:59:54.277Z,99920.34
2022-10-10T01:02:42.305Z,99927.03
2022-10-10T01:05:30.724Z,99928.16
2022-10-10T01:08:19.960Z,99919.97
2022-10-10T01:11:25.112Z,99923.50
2022-10-10T01:14:24.971Z,99916.31
2022-10-10T01:17:21.491Z,99908.44
2022-10-10T01:20:42.070Z,99905.69
2022-10-10T01:24:03.577Z,99905.69
2022-10-10T01:27:09.274Z,99907.59
2022-10-10T01:30:02.836Z,99906.47
2022-10-10T01:32:54.340Z,99903.28
2022-10-10T01:35:51.589Z,99896.88
2022-10-10T01:38:44.165Z,99903.50
2022-10-10T01:41:36.885Z,99900.84
2022-10-10T01:44:24.867Z,99899.72
2022-10-10T01:47:14.666Z,99890.72
2022-10-10T01:50:05.593Z,99897.81
2022-10-10T01:53:03.426Z,99884.34
2022-10-10T01:55:57.288Z,99885.13
2022-10-10T01:59:04.327Z,99880.34
2022-10-10T02:01:56.157Z,99890.50
2022-10-10T02:04:50.437Z,99886.25
2022-10-10T02:07:42.997Z,99886.28
2022-10-10T02:10:34.593Z,99888.38
2022-10-10T02:13:24.150Z,99886.00
2022-10-10T02:16:17.023Z,99881.19
2022-10-10T02:19:09.312Z,99879.94
2022-10-10T02:21:59.562Z,99876.84
2022-10-10T02:24:47.465Z,99873.25
2022-10-10T02:27:40.648Z,99874.44
2022-10-10T02:30:29.295Z,99872.88
2022-10-10T02:33:21.102Z,99870.88
2022-10-10T02:36:10.201Z,99880.34
2022-10-10T02:39:00.824Z,99871.25
2022-10-10T02:41:51.787Z,99871.78
2022-10-10T02:44:40.681Z,99869.50
2022-10-10T02:47:28.589Z,99872.75
2022-10-10T02:50:16.482Z,99873.94
2022-10-10T02:53:04.346Z,99866.53
2022-10-10T02:55:53.579Z,99870.44
2022-10-10T02:58:41.446Z,99867.41
2022-10-10T03:01:29.327Z,99865.09
2022-10-10T03:04:17.325Z,99861.91
2022-10-10T03:07:05.733Z,99858.72
2022-10-10T03:09:53.694Z,99866.50
2022-10-10T03:12:42.973Z,99869.50
2022-10-10T03:15:30.844Z,99870.28
2022-10-10T03:18:18.997Z,99808.16
2022-10-10T03:21:07.044Z,99869.38
2022-10-10T03:23:54.916Z,99880.34
2022-10-10T03:26:42.771Z,99871.63
2022-10-10T03:29:32.072Z,99881.13
2022-10-10T03:32:19.966Z,99877.19
2022-10-10T03:35:08.388Z,99878.00
2022-10-10T03:37:57.150Z,99874.09
2022-10-10T03:40:46.034Z,99878.47
2022-10-10T03:43:33.922Z,99881.22
2022-10-10T03:46:23.169Z,99876.84
2022-10-10T03:49:11.681Z,99873.16
2022-10-10T03:52:00.483Z,99875.22
2022-10-10T03:54:48.353Z,99874.88
2022-10-10T03:57:36.251Z,99867.75
2022-10-10T04:00:24.121Z,99874.84
2022-10-10T04:03:13.287Z,99876.78
2022-10-10T04:06:01.265Z,99846.41
2022-10-10T04:08:49.164Z,99866.66
2022-10-10T04:11:38.537Z,99869.09
2022-10-10T04:14:26.739Z,99870.97
2022-10-10T04:17:14.980Z,99871.38
2022-10-10T04:20:04.667Z,99880.69
2022-10-10T04:22:52.933Z,99872.59
2022-10-10T04:25:41.764Z,99872.53
2022-10-10T04:28:30.756Z,99875.63
2022-10-10T04:31:18.678Z,99868.91
2022-10-10T04:34:06.645Z,99877.53
2022-10-10T04:36:55.913Z,99879.78
2022-10-10T04:39:43.773Z,99882.47
2022-10-10T04:42:31.971Z,99874.09
2022-10-10T04:45:19.913Z,99869.66
2022-10-10T04:48:07.764Z,99874.63
2022-10-10T04:50:57.373Z,99877.56
2022-10-10T04:53:50.308Z,99883.72
2022-10-10T04:56:38.611Z,99880.63
2022-10-10T04:59:26.714Z,99875.44
2022-10-10T05:02:14.802Z,99877.03
2022-10-10T05:05:03.176Z,99886.16
2022-10-10T05:07:55.273Z,99886.97
2022-10-10T05:10:47.140Z,99889.03
2022-10-10T05:13:35.018Z,99889.44
2022-10-10T05:16:23.077Z,99891.78
2022-10-10T05:19:10.995Z,99889.06
2022-10-10T05:21:58.908Z,99881.31
2022-10-10T05:24:46.745Z,99881.22
2022-10-10T05:27:35.997Z,99876.09
2022-10-10T05:30:23.899Z,99876.81
2022-10-10T05:33:12.196Z,99891.38
2022-10-10T05:36:05.007Z,99896.44
2022-10-10T05:38:53.040Z,99889.19
2022-10-10T05:41:40.924Z,99889.56
2022-10-10T05:44:31.849Z,99901.72
2022-10-10T05:47:23.097Z,99893.81
2022-10-10T05:50:27.149Z,99905.41
2022-10-10T05:53:15.195Z,99906.28
2022-10-10T05:56:03.086Z,99901.13
2022-10-10T05:58:51.314Z,99901.13
2022-10-10T06:01:40.593Z,99900.44
2022-10-10T06:04:08.494Z,99889.31
2022-10-10T06:06:36.385Z,99885.09
2022-10-10T06:09:04.853Z,99889.03
2022-10-10T06:11:32.566Z,99872.66
2022-10-10T06:14:00.255Z,99890.91
2022-10-10T06:16:28.664Z,99873.41
2022-10-10T06:18:58.017Z,99886.22
2022-10-10T06:21:26.545Z,99890.78
2022-10-10T06:23:54.207Z,99892.88
2022-10-10T06:26:21.871Z,99904.41
2022-10-10T06:28:50.730Z,99901.06
2022-10-10T06:31:18.426Z,99900.72
2022-10-10T06:33:47.981Z,99902.84
2022-10-10T06:36:18.064Z,99904.50
2022-10-10T06:38:46.715Z,99896.03
2022-10-10T06:41:14.605Z,99858.91
2022-10-10T06:43:42.448Z,99850.72
2022-10-10T06:46:11.626Z,99903.75
2022-10-10T06:48:39.273Z,99906.63
2022-10-10T06:51:09.349Z,99912.56
2022-10-10T06:53:38.354Z,99918.63
2022-10-10T06:56:06.386Z,99912.88
2022-10-10T06:58:35.007Z,99917.72
2022-10-10T07:01:05.151Z,99926.78
2022-10-10T07:03:32.773Z,99939.31
2022-10-10T07:06:01.961Z,99937.75
2022-10-10T07:08:32.782Z,99907.66
2022-10-10T07:11:02.063Z,99949.44
2022-10-10T07:13:29.711Z,99943.22
2022-10-10T07:15:57.676Z,99951.22
2022-10-10T07:18:25.281Z,99946.84
2022-10-10T07:20:57.206Z,99958.41
2022-10-10T07:23:25.282Z,99957.56
2022-10-10T07:25:53.491Z,99952.91
2022-10-10T07:28:22.483Z,99963.53
2022-10-10T07:30:50.240Z,99963.19
2022-10-10T07:33:17.839Z,99968.25
2022-10-10T07:35:53.933Z,99967.81
2022-10-10T07:38:21.628Z,99980.03
2022-10-10T07:40:49.308Z,99982.44
2022-10-10T07:43:16.905Z,99982.06
2022-10-10T07:45:45.922Z,99982.00
2022-10-10T07:48:13.512Z,99969.81
2022-10-10T07:50:42.404Z,99980.09
2022-10-10T07:53:10.170Z,99976.16
2022-10-10T07:55:39.769Z,99975.06
2022-10-10T07:58:08.068Z,99972.78
2022-10-10T08:00:36.474Z,99984.69
2022-10-10T08:03:09.647Z,99990.72
2022-10-10T08:05:41.090Z,99979.31
2022-10-10T08:08:09.039Z,99983.28
2022-10-10T08:10:36.772Z,99984.88
2022-10-10T08:13:04.964Z,99997.50
2022-10-10T08:15:34.035Z,99987.59
2022-10-10T08:18:01.922Z,99978.50
2022-10-10T08:20:30.917Z,99991.91
2022-10-10T08:22:58.893Z,99984.00
2022-10-10T08:25:26.565Z,99982.84
2022-10-10T08:27:54.174Z,99987.13
2022-10-10T08:30:21.897Z,99986.31
2022-10-10T08:32:49.891Z,99987.09
2022-10-10T08:35:17.891Z,99986.75
2022-10-10T08:37:46.912Z,99997.00
2022-10-10T08:40:17.257Z,99990.25
2022-10-10T08:42:52.828Z,99992.59
2022-10-10T08:45:25.177Z,99980.69
2022-10-10T08:47:56.475Z,99984.94
2022-10-10T08:50:28.476Z,99987.66
2022-10-10T08:53:01.002Z,99982.13
2022-10-10T08:55:33.538Z,99982.03
2022-10-10T08:58:07.779Z,99990.13
2022-10-10T09:00:40.757Z,99988.50
2022-10-10T09:03:19.516Z,99971.00
2022-10-10T09:06:01.013Z,99990.47
2022-10-10T09:08:44.113Z,99987.06
2022-10-10T09:11:23.158Z,99985.56
2022-10-10T09:14:04.840Z,99980.28
2022-10-10T09:16:41.120Z,99978.22
2022-10-10T09:19:24.523Z,99978.09
2022-10-10T09:21:54.256Z,99982.16
2022-10-10T09:24:27.481Z,99972.72
2022-10-10T09:27:01.212Z,99968.53
2022-10-10T09:29:35.140Z,99964.84
2022-10-10T09:32:10.068Z,99971.69
2022-10-10T09:34:42.485Z,99964.66
2022-10-10T09:37:24.232Z,99958.94
2022-10-10T09:40:13.068Z,99963.31
2022-10-10T09:42:40.998Z,99967.78
2022-10-10T09:45:16.952Z,99966.38
2022-10-10T09:47:44.616Z,99970.47
2022-10-10T09:50:14.486Z,99971.13
2022-10-10T09:52:43.272Z,99962.84
2022-10-10T09:55:24.532Z,99974.22
2022-10-10T09:57:54.194Z,99964.72
2022-10-10T10:00:35.894Z,99969.78
2022-10-10T10:03:15.881Z,99974.53
2022-10-10T10:05:47.158Z,99976.19
2022-10-10T10:08:25.758Z,99979.22
2022-10-10T10:10:58.182Z,99982.06
2022-10-10T10:13:29.614Z,99981.28
2022-10-10T10:16:09.979Z,99982.84
2022-10-10T10:18:43.219Z,99971.16
2022-10-10T10:21:23.602Z,99977.81
2022-10-10T10:23:54.900Z,99970.94
2022-10-10T10:26:27.283Z,99964.88
2022-10-10T10:28:57.591Z,99970.22
2022-10-10T10:31:52.266Z,99975.47
2022-10-10T10:34:39.367Z,99972.84
2022-10-10T10:37:17.691Z,99974.50
2022-10-10T10:40:10.129Z,99968.56
2022-10-10T10:42:54.366Z,99972.56
2022-10-10T10:45:26.179Z,99972.13
2022-10-10T10:48:02.394Z,99971.94
2022-10-10T10:50:44.656Z,99978.75
2022-10-10T10:53:20.910Z,99989.03
2022-10-10T10:55:53.634Z,99985.72
2022-10-10T10:59:10.386Z,99986.44
2022-10-10T11:01:51.885Z,99983.09
2022-10-10T11:05:22.207Z,99986.28
2022-10-10T11:07:24.379Z,99980.44
2022-10-10T11:09:57.639Z,99975.69
2022-10-10T11:12:39.112Z,99970.59
2022-10-10T11:15:15.521Z,99970.94
2022-10-10T11:17:48.796Z,99966.00
2022-10-10T11:20:25.099Z,99966.63
2022-10-10T11:22:57.467Z,99960.03
2022-10-10T11:25:30.581Z,99962.59
2022-10-10T11:28:04.596Z,99973.44
2022-10-10T11:30:36.972Z,99962.47
2022-10-10T11:33:12.181Z,99960.41
2022-10-10T11:35:45.376Z,99962.72
2022-10-10T11:38:21.479Z,99955.53
2022-10-10T11:40:54.848Z,99960.47
2022-10-10T11:43:30.881Z,99958.09
2022-10-10T11:46:06.393Z,99957.69
2022-10-10T11:48:42.878Z,99968.97
2022-10-10T11:51:21.973Z,99969.44
2022-10-10T11:53:52.882Z,99957.72
2022-10-10T11:56:30.483Z,99947.44
2022-10-10T11:59:05.381Z,99974.13
2022-10-10T12:01:38.900Z,99961.28
2022-10-10T12:04:06.537Z,99960.72
2022-10-10T12:06:39.527Z,99961.16
2022-10-10T12:09:13.285Z,99958.47
2022-10-10T12:11:46.202Z,99958.94
2022-10-10T12:14:17.976Z,99956.47
2022-10-10T12:16:47.691Z,99947.84
2022-10-10T12:19:19.402Z,99953.88
2022-10-10T12:21:56.132Z,99956.31
2022-10-10T12:24:24.695Z,99953.25
2022-10-10T12:27:29.196Z,99954.03
2022-10-10T12:30:27.360Z,99948.81
2022-10-10T12:32:56.781Z,99946.00
2022-10-10T12:35:34.558Z,99938.66
2022-10-10T12:38:11.411Z,99950.03
2022-10-10T12:41:08.013Z,99945.38
2022-10-10T12:43:51.077Z,99944.63
2022-10-10T12:46:23.404Z,99938.81
2022-10-10T12:49:16.623Z,99930.41
2022-10-10T12:51:45.712Z,99931.03
2022-10-10T12:54:25.387Z,99937.25
2022-10-10T12:57:00.738Z,99935.03
2022-10-10T12:59:28.624Z,99936.22
2022-10-10T13:01:59.256Z,99940.22
2022-10-10T13:04:29.147Z,99932.63
2022-10-10T13:06:59.067Z,99927.56
2022-10-10T13:09:32.475Z,99932.50
2022-10-10T13:12:05.093Z,99932.75
2022-10-10T13:14:40.429Z,99934.81
2022-10-10T13:17:22.529Z,99930.22
2022-10-10T13:19:52.014Z,99933.34
2022-10-10T13:22:21.042Z,99933.38
2022-10-10T13:24:50.077Z,99925.66
2022-10-10T13:27:21.367Z,99924.16
2022-10-10T13:29:49.483Z,99925.06
2022-10-10T13:32:21.005Z,99935.66
2022-10-10T13:34:54.117Z,99931.16
2022-10-10T13:37:22.443Z,99925.63
2022-10-10T13:39:51.910Z,99886.19
2022-10-10T13:42:29.526Z,99926.16
2022-10-10T13:45:00.064Z,99910.06
2022-10-10T13:47:53.345Z,99922.38
2022-10-10T13:50:26.474Z,99921.19
2022-10-10T13:53:32.225Z,99919.09
2022-10-10T13:56:05.333Z,99910.25
2022-10-10T13:58:39.488Z,99897.84
2022-10-10T14:01:07.523Z,99918.59
2022-10-10T14:03:35.314Z,99915.78
2022-10-10T14:06:04.521Z,99920.69
2022-10-10T14:08:34.501Z,99917.22
2022-10-10T14:11:06.232Z,99917.63
2022-10-10T14:13:37.998Z,99931.81
2022-10-10T14:16:13.740Z,99923.38
2022-10-10T14:18:41.349Z,99916.81
2022-10-10T14:21:10.797Z,99920.84
2022-10-10T14:23:39.024Z,99905.09
2022-10-10T14:26:08.808Z,99920.19
2022-10-10T14:28:39.696Z,99915.34
2022-10-10T14:31:08.039Z,99904.34
2022-10-10T14:33:35.894Z,99914.78
2022-10-10T14:36:04.269Z,99916.41
2022-10-10T14:38:33.675Z,99914.09
2022-10-10T14:41:02.033Z,99913.09
2022-10-10T14:43:30.089Z,99917.72
2022-10-10T14:45:57.802Z,99913.41
2022-10-10T14:48:25.404Z,99915.56
2022-10-10T14:50:53.061Z,99910.91
2022-10-10T14:53:20.836Z,99918.16
2022-10-10T14:55:53.931Z,99908.47
2022-10-10T14:58:24.105Z,99905.72
2022-10-10T15:00:52.834Z,99907.59
2022-10-10T15:03:20.741Z,99912.88
2022-10-10T15:05:48.724Z,99908.41
2022-10-10T15:08:18.474Z,99910.06
2022-10-10T15:10:46.055Z,99874.22
2022-10-10T15:13:16.707Z,99903.13
2022-10-10T15:15:44.378Z,99904.03
2022-10-10T15:18:39.596Z,99911.66
2022-10-10T15:21:01.059Z,99886.47
2022-10-10T15:23:28.878Z,99910.97
2022-10-10T15:26:00.157Z,99901.03
2022-10-10T15:28:29.144Z,99889.84
2022-10-10T15:30:56.745Z,99894.66
2022-10-10T15:33:24.421Z,99897.56
2022-10-10T15:36:08.969Z,99901.47
2022-10-10T15:38:38.263Z,99907.06
2022-10-10T15:41:07.549Z,99907.91
2022-10-10T15:43:44.458Z,99916.94
2022-10-10T15:46:12.091Z,99916.13
2022-10-10T15:48:39.734Z,99906.81
2022-10-10T15:51:08.752Z,99911.56
2022-10-10T15:53:37.109Z,99916.13
2022-10-10T15:56:10.220Z,99917.16
2022-10-10T15:58:40.661Z,99904.03
2022-10-10T16:01:12.745Z,99922.16
2022-10-10T16:03:40.469Z,99918.66
2022-10-10T16:06:08.833Z,99929.69
2022-10-10T16:08:37.350Z,99936.81
2022-10-10T16:11:06.789Z,99936.47
2022-10-10T16:13:36.050Z,99935.31
2022-10-10T16:16:07.113Z,99937.56
2022-10-10T16:18:40.026Z,99933.19
2022-10-10T16:21:09.539Z,99939.00
2022-10-10T16:23:38.045Z,99935.53
2022-10-10T16:26:07.559Z,99938.50
2022-10-10T16:28:35.851Z,99938.63
2022-10-10T16:31:05.892Z,99933.31
2022-10-10T16:33:34.054Z,99940.41
2022-10-10T16:36:02.117Z,99922.91
2022-10-10T16:38:29.717Z,99946.72
2022-10-10T16:40:58.692Z,99949.34
2022-10-10T16:43:26.406Z,99952.00
2022-10-10T16:45:54.031Z,99954.69
2022-10-10T16:48:22.943Z,99964.81
2022-10-10T16:50:50.678Z,99964.28
2022-10-10T16:53:18.295Z,99954.44
2022-10-10T16:55:46.268Z,99957.59
2022-10-10T16:58:13.918Z,99971.19
2022-10-10T17:00:43.171Z,99961.69
2022-10-10T17:03:10.805Z,99970.16
2022-10-10T17:05:39.839Z,99969.22
2022-10-10T17:08:07.379Z,99969.84
2022-10-10T17:10:34.957Z,99960.47
2022-10-10T17:13:02.746Z,99909.91
2022-10-10T17:15:30.434Z,99963.34
2022-10-10T17:17:58.006Z,99971.28
2022-10-10T17:20:25.619Z,99964.97
2022-10-10T17:22:54.571Z,99968.16
2022-10-10T17:25:22.127Z,99971.59
2022-10-10T17:27:49.725Z,99971.88
2022-10-10T17:30:17.564Z,99968.78
2022-10-10T17:32:45.143Z,99972.69
2022-10-10T17:35:13.186Z,99961.59
2022-10-10T17:37:40.785Z,99964.16
2022-10-10T17:40:10.661Z,99962.06
2022-10-10T17:42:38.305Z,99968.13
2022-10-10T17:45:06.630Z,99964.41
2022-10-10T17:47:34.663Z,99973.28
2022-10-10T17:50:02.308Z,99979.34
2022-10-10T17:52:29.904Z,99987.47
2022-10-10T17:54:57.467Z,100001.38
2022-10-10T17:57:26.455Z,100042.31
2022-10-10T18:02:50.139Z,100029.47
2022-10-10T18:05:38.356Z,100110.47
2022-10-10T18:08:26.766Z,100093.06
2022-10-10T18:11:16.703Z,100088.69
2022-10-10T18:14:05.945Z,100074.50
2022-10-10T18:16:53.876Z,100051.34
2022-10-10T18:19:41.798Z,100046.28
2022-10-10T18:22:29.728Z,100059.75
2022-10-10T18:25:20.626Z,100052.72
2022-10-10T18:28:10.839Z,100049.97
2022-10-10T18:31:00.698Z,100056.69
2022-10-10T18:33:49.236Z,100047.66
2022-10-10T18:36:38.616Z,100067.88
2022-10-10T18:39:32.192Z,100073.44
2022-10-10T18:42:21.064Z,100082.50
2022-10-10T18:45:09.366Z,100077.38
2022-10-10T18:47:58.637Z,100077.38
2022-10-10T18:50:46.566Z,100090.47
2022-10-10T18:53:37.124Z,100077.47
2022-10-10T18:56:25.181Z,100073.16
2022-10-10T18:59:15.127Z,100069.63
2022-10-10T19:02:03.036Z,100074.38
2022-10-10T19:04:52.250Z,100075.97
2022-10-10T19:07:40.145Z,100089.00
2022-10-10T19:10:28.084Z,100098.88
2022-10-10T19:13:17.016Z,100099.69
2022-10-10T19:16:05.682Z,100111.56
2022-10-10T19:18:58.043Z,100110.84
2022-10-10T19:21:48.928Z,100104.50
2022-10-10T19:24:36.859Z,100103.31
2022-10-10T19:27:24.774Z,100107.22
2022-10-10T19:30:13.994Z,100115.13
2022-10-10T19:33:01.918Z,100121.47
2022-10-10T19:35:52.226Z,100137.25
2022-10-10T19:38:43.116Z,100132.88
2022-10-10T19:41:31.211Z,100136.81
2022-10-10T19:44:19.135Z,100147.19
2022-10-10T19:47:07.037Z,100149.91
2022-10-10T19:49:54.944Z,100185.53
2022-10-10T19:52:42.927Z,100203.00
2022-10-10T19:55:32.421Z,100211.69
2022-10-10T19:58:20.328Z,100183.59
2022-10-10T20:01:09.444Z,100179.63
2022-10-10T20:03:57.972Z,100174.09
2022-10-10T20:06:45.917Z,100177.22
2022-10-10T20:09:33.830Z,100189.09
2022-10-10T20:12:23.269Z,100190.63
2022-10-10T20:15:12.341Z,100206.47
2022-10-10T20:18:00.271Z,100201.34
2022-10-10T20:20:51.099Z,100191.13
2022-10-10T20:23:39.063Z,100197.84
2022-10-10T20:26:27.345Z,100204.56
2022-10-10T20:29:16.583Z,100204.53
2022-10-10T20:32:04.599Z,100215.25
2022-10-10T20:34:53.577Z,100229.91
2022-10-10T20:37:41.482Z,100234.28
2022-10-10T20:40:29.419Z,100239.03
2022-10-10T20:43:17.575Z,100244.94
2022-10-10T20:46:09.200Z,100248.53
2022-10-10T20:48:57.904Z,100249.72
2022-10-10T20:51:48.664Z,100254.47
2022-10-10T20:54:37.124Z,100251.28
2022-10-10T20:57:25.138Z,100253.25
2022-10-10T21:00:14.269Z,100257.25
2022-10-10T21:03:03.506Z,100254.50
2022-10-10T21:06:02.439Z,100239.91
2022-10-10T21:08:51.074Z,100269.97
2022-10-10T21:11:39.975Z,100262.50
2022-10-10T21:14:28.183Z,100271.19
2022-10-10T21:17:16.110Z,100266.47
2022-10-10T21:20:06.254Z,100271.22
2022-10-10T21:22:55.602Z,100284.63
2022-10-10T21:25:44.651Z,100282.69
2022-10-10T21:28:32.630Z,100291.38
2022-10-10T21:31:22.691Z,100294.53
2022-10-10T21:34:15.601Z,100291.75
2022-10-10T21:37:04.949Z,100301.66
2022-10-10T21:39:52.865Z,100309.97
2022-10-10T21:42:41.064Z,100315.47
2022-10-10T21:45:28.984Z,100317.84
2022-10-10T21:48:16.918Z,100317.06
2022-10-10T21:51:05.723Z,100313.50
2022-10-10T21:53:55.872Z,100292.16
2022-10-10T21:56:43.844Z,100317.84
2022-10-10T21:59:32.484Z,100308.75
2022-10-10T22:02:20.385Z,100322.19
2022-10-10T22:05:11.138Z,100323.78
2022-10-10T22:07:59.017Z,100323.78
2022-10-10T22:10:48.247Z,100338.44
2022-10-10T22:13:36.611Z,100337.63
2022-10-10T22:16:24.982Z,100340.38
2022-10-10T22:19:12.981Z,100339.59
2022-10-10T22:22:00.864Z,100349.47
2022-10-10T22:24:48.763Z,100350.69
2022-10-10T22:27:38.273Z,100306.00
2022-10-10T22:30:26.247Z,100347.88
2022-10-10T22:33:14.278Z,100356.19
2022-10-10T22:36:02.783Z,100354.59
2022-10-10T22:38:50.951Z,100360.16
2022-10-10T22:41:38.890Z,100361.75
2022-10-10T22:44:28.206Z,100370.06
2022-10-10T22:47:16.133Z,100370.84
2022-10-10T22:50:04.311Z,100361.34
2022-10-10T22:52:52.229Z,100362.53
2022-10-10T22:55:40.175Z,100374.81
2022-10-10T22:58:28.307Z,100373.25
2022-10-10T23:01:19.553Z,100377.59
2022-10-10T23:04:13.138Z,100373.25
2022-10-10T23:07:01.059Z,100378.38
2022-10-10T23:09:49.495Z,100383.94
2022-10-10T23:12:37.784Z,100390.25
2022-10-10T23:15:25.677Z,100393.81
2022-10-10T23:18:15.164Z,100383.94
2022-10-10T23:21:03.126Z,100379.97
2022-10-10T23:23:51.200Z,100381.53
2022-10-10T23:26:39.113Z,100391.84
2022-10-10T23:29:27.074Z,100391.06
2022-10-10T23:32:15.041Z,100393.81
2022-10-10T23:35:04.547Z,100392.63
2022-10-10T23:37:52.461Z,100398.16
2022-10-10T23:40:40.401Z,100398.97
2022-10-10T23:43:28.571Z,100406.06
2022-10-10T23:46:16.521Z,100406.06
2022-10-10T23:49:04.431Z,100406.88
2022-10-10T23:51:53.718Z,100418.75
2022-10-10T23:54:41.644Z,100414.00
2022-10-10T23:57:29.723Z,100419.53
